ESNQ

Details ICAO ESNQ (KRN)
Name Kiruna
Region Sweden
Timezone Europe/Stockholm (UTC+1.0)
Plans Departing 30
Arriving 44
Stats Elevation 1,508 ft / 460 m (AMSL)
Location 67.821984° 20.336762°
Runways 1
Magnetic Variation 9.074° E
Sunrise Unknown / Unknown
Sunset Unknown / Unknown
Advertisement - Login to hide

Runways

ID Width Length Bearing (true) Bearing (mag) Surface Threshold Offset Overrun Length
03 148 ft / 45 m 8,183 ft / 2,494 m 33.63° 24.56° Asphalt 0 ft / 0 m 200 ft / 61 m
21 148 ft / 45 m 8,183 ft / 2,494 m 213.66° 204.59° Asphalt 0 ft / 0 m 200 ft / 61 m

Approach Navaids

Runway Type Ident Frequency Range Bearing (true) Bearing (mag) Slope Elevation
21 Localiser NQ 110.30 MHz 18 nm / 33 km 213.64° 204.57° - 1,508 ft / 460 m (AMSL)
21 Glidescope NQ 110.30 MHz 10 nm / 19 km 213.64° 204.57° 2.86° 1,508 ft / 460 m (AMSL)

Map

Weather


0- 5 10 15 20 25 30 35+ Temperature / ° C

Clouds and Precipitation
Forecast for 2017-12-18 00:00 UTC. Updated 18 minutes ago

Ground ~20,000 ft ~40,000 ft Winds

METAR

ESNQ 172120Z 25002KT 9999 SCT035 M13/M15 Q0998

TAF

Not found

Frequencies

Tower 130.15 MHz TWR
Warning: Do not use this data for real-world aviation or navigation. No guarantee of current accuracy is given.